Pagrindinis puslapis
METAR-TAF:

METAR-TAF

Oro uostai :

Haugesiundas, Norvegija

platuma: 59-21N, ilguma: 005-13E, Aukštis: 2 m

Dabartinis oras

Ataskaita buvo paskelbta 33 minutes, ne 12:20 UTC
Vėjas 4 kt iš Vakarų/Pietvakarių, svyruoja nuo Pietų ir Vakarų/Šiaurės Vakarų
Temperatūra 18°C
Drėgmė 52%
Slėgis 1029 hPa
Matomumas 10 km arba daugiau
nėra debesų žemiau 1500 m ir nėra kamuolinių lietaus debesų

METAR: ENHD 011220Z 24004KT 190V290 CAVOK 18/08 Q1029

Laikas: 14:53 (12:53 UTC)

Prognozė

Ataskaita buvo paskelbta 1 valandą ir 53 minutes, ne 11:00 UTC
Prognozė galioja nuo 01 metu 12 UTC su 01 metu 19 UTC
Vėjas 8 kt iš Vakarų/Pietvakarių
Matomumas 10 km arba daugiau
nėra debesų žemiau 1500 m ir nėra kamuolinių lietaus debesų
Tapsmas
nuo 01 metu 12 UTC su 01 metu 14 UTC
Vėjas 10 kt iš Šiaurės Vakarų

TAF: ENHD 011100Z 0112/0119 24008KT CAVOK BECMG 0112/0114 32010KT

Orai ataskaitas ir orų prognozės (METAR, TAF).

turimą stotys yra geltonos ir raudonos taškus žemėlapyje.

Perkelti pele per norėdami pamatyti stoties vardą.

Tada spustelėkite, norėdami matyti oro stebėjimo ir prognozės.

Norėdami pakeisti žemėlapį: spustelėkite ant žalios mygtukų su juodo kryžiaus žemyn,; žalią mygtuką su brūkšneliu, jei norite nutolinti; arba žalių rodyklių gretimoms žemėlapius.


METAR-TAF: